Nearby METAR Reports

 

KBFI - Seattle/Boeing, Washington, USA
Distance from station: S 10mi, 16km
Updated: Wed, 17-Jan-2018 10:53pm PST
Mostly cloudy
Mostly cloudy
 Wind from S
Wind: S 14 mph , 22 km/h, Gust: 22 mph , 35 km/h
Temperature: 54°F , 12°C
Dew Point: 46°F , 8°C
Humidity: 77%
Barometer: 29.76 inHg , 1007.8 hPa
Clouds: Mostly cloudy
Visibility: 10 miles , 16 km
Cloud details: Partly cloudy 5000 ft
Mostly cloudy 8000 ft
2018/01/18 06:53 KBFI 180653Z 18012G19KT 10SM SCT050 BKN080 12/08 A2976 RMK AO2 RAE09 SLP078 P0000 T01170078
KRNT - Renton, Washington, USA
Distance from station: SSE 14mi, 23km
Updated: Wed, 17-Jan-2018 10:53pm PST
Overcast
Overcast
 Wind from SE
Wind: SE 6 mph , 9 km/h
Temperature: 54°F , 12°C
Dew Point: 46°F , 8°C
Humidity: 77%
Barometer: 29.76 inHg , 1007.8 hPa
Clouds: Overcast
Visibility: 10 miles , 16 km
Cloud details: Partly cloudy 5000 ft
Mostly cloudy 6000 ft
Overcast 10000 ft
2018/01/18 06:53 KRNT 180653Z AUTO 13005KT 10SM SCT050 BKN060 OVC100 12/08 A2976 RMK AO2 LTG DSNT NW SLP084 T01170083
 
KPAE - Everett, Washington, USA
Distance from station: N 15mi, 25km
Updated: Wed, 17-Jan-2018 10:53pm PST
Mostly cloudy
Mostly cloudy
 Wind from SE
Wind: SE 17 mph , 28 km/h, Gust: 24 mph , 39 km/h
Temperature: 50°F , 10°C
Wind Chill: 44°F , 7°C
Dew Point: 46°F , 8°C
Humidity: 88%
Barometer: 29.74 inHg , 1007.1 hPa
Clouds: Mostly cloudy
Visibility: 10 miles , 16 km
Cloud details: Few Clouds 3300 ft
Partly cloudy 5500 ft
Mostly cloudy 7000 ft
2018/01/18 06:53 KPAE 180653Z AUTO 14015G21KT 10SM FEW033 SCT055 BKN070 10/08 A2974 RMK AO2 LTG DSNT S SLP072 T01000083
KSEA - Seattle/Metro, Washington, USA
Distance from station: S 17mi, 27km
Updated: Wed, 17-Jan-2018 10:53pm PST
Overcast
Overcast
 Wind from S
Wind: S 22 mph , 35 km/h, Gust: 33 mph , 54 km/h
Temperature: 54°F , 12°C
Dew Point: 43°F , 6°C
Humidity: 67%
Barometer: 29.75 inHg , 1007.5 hPa
Clouds: Overcast
Visibility: 10 miles , 16 km
Cloud details: Few Clouds 5000 ft
Overcast 8000 ft
2018/01/18 06:53 KSEA 180653Z 19019G29KT 10SM FEW050 OVC080 12/06 A2975 RMK AO2 PK WND 20029/0649 SLP081 T01170061
 
KPWT - Bremerton Ntnl, Washington, USA
Distance from station: SW 24mi, 39km
Updated: Wed, 17-Jan-2018 11:14pm PST
Light rain, Overcast
Light rain, Overcast
 Wind from S
Wind: S 9 mph , 15 km/h
Temperature: 48°F , 9°C
Wind Chill: 44°F , 7°C
Dew Point: 46°F , 8°C
Humidity: 94%
Barometer: 29.74 inHg , 1007.1 hPa
Summary: Light rain
Clouds: Overcast
Visibility: 10 miles , 16 km
Cloud details: Partly cloudy 800 ft
Mostly cloudy 3400 ft
Overcast 6500 ft
2018/01/18 07:14 KPWT 180714Z AUTO 18008KT 10SM -RA SCT008 BKN034 OVC065 09/08 A2974 RMK AO2 RAB14 P0000
KTIW - Tacoma, Washington, USA
Distance from station: SSW 32mi, 52km
Updated: Wed, 17-Jan-2018 10:53pm PST
Mostly cloudy
Mostly cloudy
 Wind from S
Wind: S 13 mph , 20 km/h, Gust: 21 mph , 33 km/h
Temperature: 52°F , 11°C
Dew Point: 46°F , 8°C
Humidity: 82%
Barometer: 29.76 inHg , 1007.8 hPa
Clouds: Mostly cloudy
Visibility: 10 miles , 16 km
Cloud details: Mostly cloudy 9000 ft
2018/01/18 06:53 KTIW 180653Z AUTO 18011G18KT 10SM BKN090 11/08 A2976 RMK AO2 LTG DSNT NE SLP078 T01060078
 
KAWO - Arlington Muni, Washington, USA
Distance from station: N 33mi, 54km
Updated: Wed, 17-Jan-2018 10:56pm PST
Few Clouds
Few Clouds
 Wind from SSE
Wind: SSE 24 mph , 39 km/h, Gust: 32 mph , 52 km/h
Temperature: 52°F , 11°C
Dew Point: 46°F , 8°C
Humidity: 82%
Barometer: 29.73 inHg , 1006.8 hPa
Clouds: Few Clouds
Visibility: 10 miles , 16 km
Cloud details: Few Clouds 1900 ft
2018/01/18 06:56 KAWO 180656Z AUTO 15021G28KT 10SM FEW019 11/08 A2973 RMK AO2 PK WND 14029/0646 SLP071 T01060078
KTCM - Tacoma/Mc Chord, Washington, USA
Distance from station: S 41mi, 65km
Updated: Wed, 17-Jan-2018 10:58pm PST
Mostly cloudy
Mostly cloudy
 Wind from S
Wind: S 21 mph , 33 km/h, Gust: 25 mph , 41 km/h
Temperature: 52°F , 11°C
Dew Point: 50°F , 10°C
Humidity: 94%
Barometer: 29.77 inHg , 1008.1 hPa
Clouds: Mostly cloudy
Visibility: 10 miles , 16 km
Cloud details: Partly cloudy 5500 ft
Mostly cloudy 7000 ft
2018/01/18 06:58 KTCM 180658Z AUTO 19018G22KT 10SM SCT055 BKN070 11/10 A2977 RMK AO2 RAE08 SLP085 P0000 T01050102 $
 
KPLU - Puyallup/Thun, Washington, USA
Distance from station: S 41mi, 66km
Updated: Wed, 17-Jan-2018 11:15pm PST
Overcast
Overcast
 Wind from calm
Wind: Calm
Temperature: 48°F , 9°C
Dew Point: 48°F , 9°C
Humidity: 100%
Barometer: 29.78 inHg , 1008.5 hPa
Clouds: Overcast
Visibility: 10 miles , 16 km
Cloud details: Overcast 4700 ft
2018/01/18 07:15 KPLU 180715Z AUTO 00000KT 10SM OVC047 09/09 A2978 RMK AO2
KGRF - Fort Lewis/Gray, Washington, USA
Distance from station: SSW 45mi, 72km
Updated: Wed, 17-Jan-2018 10:58pm PST
Few Clouds
Few Clouds
 Wind from SSE
Wind: SSE 18 mph , 30 km/h
Temperature: 52°F , 11°C
Dew Point: 50°F , 10°C
Humidity: 94%
Barometer: 29.76 inHg , 1007.8 hPa
Clouds: Few Clouds
Visibility: 10 miles , 16 km
Cloud details: Few Clouds 6000 ft
2018/01/18 06:58 KGRF 180658Z AUTO 15016KT 10SM FEW060 11/10 A2976 RMK AO2 RAE01 SLP082 P0000 T01060101 $
 
KNUW - Whidbey Is. Nas, Washington, USA
Distance from station: NNW 48mi, 77km
Updated: Wed, 17-Jan-2018 10:56pm PST
Mostly cloudy
Mostly cloudy
 Wind from S
Wind: S 21 mph , 33 km/h, Gust: 30 mph , 48 km/h
Temperature: 54°F , 12°C
Dew Point: 46°F , 8°C
Humidity: 77%
Barometer: 29.72 inHg , 1006.4 hPa
Clouds: Mostly cloudy
Visibility: 10 miles , 16 km
Cloud details: Partly cloudy 2500 ft
Mostly cloudy 7000 ft
Mostly cloudy 9500 ft
2018/01/18 06:56 KNUW 180656Z 17018G26KT 10SM SCT025 BKN070 BKN095 12/08 A2972 RMK AO2 PK WND 17035/0614 RAB34E55 SLP065 P0000 T01220083 $
KSHN - Shelton, Washington, USA
Distance from station: SW 50mi, 80km
Updated: Wed, 17-Jan-2018 10:53pm PST
Light rain, Overcast
Light rain, Overcast
 Wind from S
Wind: S 9 mph , 15 km/h
Temperature: 50°F , 10°C
Wind Chill: 46°F , 8°C
Dew Point: 48°F , 9°C
Humidity: 94%
Barometer: 29.72 inHg , 1006.4 hPa
Summary: Light rain
Clouds: Overcast
Visibility: 9 miles , 14 km
Cloud details: Few Clouds 4100 ft
Mostly cloudy 4800 ft
Overcast 9500 ft
2018/01/18 06:53 KSHN 180653Z AUTO 18008KT 9SM -RA FEW041 BKN048 OVC095 10/09 A2972 RMK AO2 RAE04B50 SLP068 P0001 T01000089